sensor_id;sensor_type;location;lat;lon;timestamp;temperature;humidity
40996;DHT22;26723;57.478;12.066;2023-10-19T00:02:08;6.60;99.90
40996;DHT22;26723;57.478;12.066;2023-10-19T00:05:16;6.50;99.90
40996;DHT22;26723;57.478;12.066;2023-10-19T00:08:26;6.50;99.90
40996;DHT22;26723;57.478;12.066;2023-10-19T00:11:43;6.50;99.90
40996;DHT22;26723;57.478;12.066;2023-10-19T00:14:53;6.50;99.90
40996;DHT22;26723;57.478;12.066;2023-10-19T00:18:02;6.50;99.90
40996;DHT22;26723;57.478;12.066;2023-10-19T00:21:27;6.50;99.90
40996;DHT22;26723;57.478;12.066;2023-10-19T00:24:37;6.50;99.90
40996;DHT22;26723;57.478;12.066;2023-10-19T00:27:49;6.50;99.90
40996;DHT22;26723;57.478;12.066;2023-10-19T00:30:57;6.50;99.90
40996;DHT22;26723;57.478;12.066;2023-10-19T00:34:14;6.50;99.90
40996;DHT22;26723;57.478;12.066;2023-10-19T00:37:23;6.50;99.90
40996;DHT22;26723;57.478;12.066;2023-10-19T00:40:35;6.50;99.90
40996;DHT22;26723;57.478;12.066;2023-10-19T00:43:49;6.50;99.90
40996;DHT22;26723;57.478;12.066;2023-10-19T00:47:04;6.50;99.90
40996;DHT22;26723;57.478;12.066;2023-10-19T00:50:20;6.50;99.90
40996;DHT22;26723;57.478;12.066;2023-10-19T00:53:30;6.50;99.90
40996;DHT22;26723;57.478;12.066;2023-10-19T00:56:42;6.40;99.90
40996;DHT22;26723;57.478;12.066;2023-10-19T00:59:55;6.40;99.90
40996;DHT22;26723;57.478;12.066;2023-10-19T01:03:18;6.40;99.90
40996;DHT22;26723;57.478;12.066;2023-10-19T01:06:27;6.40;99.90
40996;DHT22;26723;57.478;12.066;2023-10-19T01:09:39;6.30;99.90
40996;DHT22;26723;57.478;12.066;2023-10-19T01:12:52;6.40;99.90
40996;DHT22;26723;57.478;12.066;2023-10-19T01:16:01;6.30;99.90
40996;DHT22;26723;57.478;12.066;2023-10-19T01:19:11;6.30;99.90
40996;DHT22;26723;57.478;12.066;2023-10-19T01:22:20;6.30;99.90
40996;DHT22;26723;57.478;12.066;2023-10-19T01:25:30;6.20;99.90
40996;DHT22;26723;57.478;12.066;2023-10-19T01:28:42;6.20;99.90
40996;DHT22;26723;57.478;12.066;2023-10-19T01:31:51;6.20;99.90
40996;DHT22;26723;57.478;12.066;2023-10-19T01:35:03;6.20;99.90
40996;DHT22;26723;57.478;12.066;2023-10-19T01:38:12;6.10;99.90
40996;DHT22;26723;57.478;12.066;2023-10-19T01:41:21;6.00;99.90
40996;DHT22;26723;57.478;12.066;2023-10-19T01:44:32;6.00;99.90
40996;DHT22;26723;57.478;12.066;2023-10-19T01:47:43;6.00;99.90
40996;DHT22;26723;57.478;12.066;2023-10-19T01:50:53;6.00;99.90
40996;DHT22;26723;57.478;12.066;2023-10-19T01:54:00;5.90;99.90
40996;DHT22;26723;57.478;12.066;2023-10-19T01:57:10;5.80;99.90
40996;DHT22;26723;57.478;12.066;2023-10-19T02:00:20;5.70;99.90
40996;DHT22;26723;57.478;12.066;2023-10-19T02:03:31;5.70;99.90
40996;DHT22;26723;57.478;12.066;2023-10-19T02:06:40;5.60;99.90
40996;DHT22;26723;57.478;12.066;2023-10-19T02:09:48;5.60;99.90
40996;DHT22;26723;57.478;12.066;2023-10-19T02:12:59;5.60;99.90
40996;DHT22;26723;57.478;12.066;2023-10-19T02:16:13;5.50;99.90
40996;DHT22;26723;57.478;12.066;2023-10-19T02:19:24;5.40;99.90
40996;DHT22;26723;57.478;12.066;2023-10-19T02:22:33;5.40;99.90
40996;DHT22;26723;57.478;12.066;2023-10-19T02:25:41;5.40;99.90
40996;DHT22;26723;57.478;12.066;2023-10-19T02:28:51;5.40;99.90
40996;DHT22;26723;57.478;12.066;2023-10-19T02:32:00;5.30;99.90
40996;DHT22;26723;57.478;12.066;2023-10-19T02:35:13;5.20;99.90
40996;DHT22;26723;57.478;12.066;2023-10-19T02:38:22;5.20;99.90
40996;DHT22;26723;57.478;12.066;2023-10-19T02:41:30;5.20;99.90
40996;DHT22;26723;57.478;12.066;2023-10-19T02:44:43;5.10;99.90
40996;DHT22;26723;57.478;12.066;2023-10-19T02:47:51;5.00;99.90
40996;DHT22;26723;57.478;12.066;2023-10-19T02:50:59;5.00;99.90
40996;DHT22;26723;57.478;12.066;2023-10-19T02:54:14;5.00;99.90
40996;DHT22;26723;57.478;12.066;2023-10-19T02:57:26;4.90;99.90
40996;DHT22;26723;57.478;12.066;2023-10-19T03:00:39;4.90;99.90
40996;DHT22;26723;57.478;12.066;2023-10-19T03:03:50;4.80;99.90
40996;DHT22;26723;57.478;12.066;2023-10-19T03:07:00;4.80;99.90
40996;DHT22;26723;57.478;12.066;2023-10-19T03:10:10;4.80;99.90
40996;DHT22;26723;57.478;12.066;2023-10-19T03:13:31;4.80;99.90
40996;DHT22;26723;57.478;12.066;2023-10-19T03:16:42;4.70;99.90
40996;DHT22;26723;57.478;12.066;2023-10-19T03:19:50;4.70;99.90
40996;DHT22;26723;57.478;12.066;2023-10-19T03:22:58;4.70;99.90
40996;DHT22;26723;57.478;12.066;2023-10-19T03:26:08;4.60;99.90
40996;DHT22;26723;57.478;12.066;2023-10-19T03:29:38;4.60;99.90
40996;DHT22;26723;57.478;12.066;2023-10-19T03:32:49;4.70;99.90
40996;DHT22;26723;57.478;12.066;2023-10-19T03:35:57;4.60;99.90
40996;DHT22;26723;57.478;12.066;2023-10-19T03:39:06;4.60;99.90
40996;DHT22;26723;57.478;12.066;2023-10-19T03:42:22;4.60;99.90
40996;DHT22;26723;57.478;12.066;2023-10-19T03:45:33;4.60;99.90
40996;DHT22;26723;57.478;12.066;2023-10-19T03:48:47;4.60;99.90
40996;DHT22;26723;57.478;12.066;2023-10-19T03:51:55;4.60;99.90
40996;DHT22;26723;57.478;12.066;2023-10-19T03:55:08;4.60;99.90
40996;DHT22;26723;57.478;12.066;2023-10-19T03:58:23;4.60;99.90
40996;DHT22;26723;57.478;12.066;2023-10-19T04:01:36;4.50;99.90
40996;DHT22;26723;57.478;12.066;2023-10-19T04:04:47;4.60;99.90
40996;DHT22;26723;57.478;12.066;2023-10-19T04:07:56;4.60;99.90
40996;DHT22;26723;57.478;12.066;2023-10-19T04:11:06;4.60;99.90
40996;DHT22;26723;57.478;12.066;2023-10-19T04:14:19;4.60;99.90
40996;DHT22;26723;57.478;12.066;2023-10-19T04:17:28;4.60;99.90
40996;DHT22;26723;57.478;12.066;2023-10-19T04:20:39;4.60;99.90
40996;DHT22;26723;57.478;12.066;2023-10-19T04:24:02;4.60;99.90
40996;DHT22;26723;57.478;12.066;2023-10-19T04:27:11;4.60;99.90
40996;DHT22;26723;57.478;12.066;2023-10-19T04:30:20;4.60;99.90
40996;DHT22;26723;57.478;12.066;2023-10-19T04:33:30;4.60;99.90
40996;DHT22;26723;57.478;12.066;2023-10-19T04:36:40;4.60;99.90
40996;DHT22;26723;57.478;12.066;2023-10-19T04:39:50;4.60;99.90
40996;DHT22;26723;57.478;12.066;2023-10-19T04:42:59;4.60;99.90
40996;DHT22;26723;57.478;12.066;2023-10-19T04:46:08;4.60;99.90
40996;DHT22;26723;57.478;12.066;2023-10-19T04:49:19;4.60;99.90
40996;DHT22;26723;57.478;12.066;2023-10-19T04:52:29;4.50;99.90
40996;DHT22;26723;57.478;12.066;2023-10-19T04:55:37;4.50;99.90
40996;DHT22;26723;57.478;12.066;2023-10-19T04:58:46;4.60;99.90
40996;DHT22;26723;57.478;12.066;2023-10-19T05:01:55;4.60;99.90
40996;DHT22;26723;57.478;12.066;2023-10-19T05:05:06;4.60;99.90
40996;DHT22;26723;57.478;12.066;2023-10-19T05:08:17;4.60;99.90
40996;DHT22;26723;57.478;12.066;2023-10-19T05:11:26;4.60;99.90
40996;DHT22;26723;57.478;12.066;2023-10-19T05:14:35;4.60;99.90
40996;DHT22;26723;57.478;12.066;2023-10-19T05:17:44;4.60;99.90
40996;DHT22;26723;57.478;12.066;2023-10-19T05:20:53;4.60;99.90
40996;DHT22;26723;57.478;12.066;2023-10-19T05:24:06;4.60;99.90
40996;DHT22;26723;57.478;12.066;2023-10-19T05:27:14;4.50;99.90
40996;DHT22;26723;57.478;12.066;2023-10-19T05:30:24;4.50;99.90
40996;DHT22;26723;57.478;12.066;2023-10-19T05:33:33;4.50;99.90
40996;DHT22;26723;57.478;12.066;2023-10-19T05:36:41;4.60;99.90
40996;DHT22;26723;57.478;12.066;2023-10-19T05:39:54;4.60;99.90
40996;DHT22;26723;57.478;12.066;2023-10-19T05:43:03;4.60;99.90
40996;DHT22;26723;57.478;12.066;2023-10-19T05:46:12;4.60;99.90
40996;DHT22;26723;57.478;12.066;2023-10-19T05:49:25;4.60;99.90
40996;DHT22;26723;57.478;12.066;2023-10-19T05:52:37;4.60;99.90
40996;DHT22;26723;57.478;12.066;2023-10-19T05:55:47;4.60;99.90
40996;DHT22;26723;57.478;12.066;2023-10-19T05:58:56;4.60;99.90
40996;DHT22;26723;57.478;12.066;2023-10-19T06:02:05;4.60;99.90
40996;DHT22;26723;57.478;12.066;2023-10-19T06:05:15;4.60;99.90
40996;DHT22;26723;57.478;12.066;2023-10-19T06:08:24;4.60;99.90
40996;DHT22;26723;57.478;12.066;2023-10-19T06:11:35;4.60;99.90
40996;DHT22;26723;57.478;12.066;2023-10-19T06:14:49;4.60;99.90
40996;DHT22;26723;57.478;12.066;2023-10-19T06:17:58;4.60;99.90
40996;DHT22;26723;57.478;12.066;2023-10-19T06:21:06;4.60;99.90
40996;DHT22;26723;57.478;12.066;2023-10-19T06:24:15;4.70;99.90
40996;DHT22;26723;57.478;12.066;2023-10-19T06:27:25;4.70;99.90
40996;DHT22;26723;57.478;12.066;2023-10-19T06:30:33;4.70;99.90
40996;DHT22;26723;57.478;12.066;2023-10-19T06:33:42;4.70;99.90
40996;DHT22;26723;57.478;12.066;2023-10-19T06:36:50;4.70;99.90
40996;DHT22;26723;57.478;12.066;2023-10-19T06:39:59;4.80;99.90
40996;DHT22;26723;57.478;12.066;2023-10-19T06:43:09;4.80;99.90
40996;DHT22;26723;57.478;12.066;2023-10-19T06:46:18;4.90;99.90
40996;DHT22;26723;57.478;12.066;2023-10-19T06:49:29;4.90;99.90
40996;DHT22;26723;57.478;12.066;2023-10-19T06:52:38;4.90;99.90
40996;DHT22;26723;57.478;12.066;2023-10-19T06:55:47;4.90;99.90
40996;DHT22;26723;57.478;12.066;2023-10-19T06:58:57;5.00;99.90
40996;DHT22;26723;57.478;12.066;2023-10-19T07:02:10;5.10;99.90
40996;DHT22;26723;57.478;12.066;2023-10-19T07:05:23;5.00;99.90
40996;DHT22;26723;57.478;12.066;2023-10-19T07:08:32;5.20;99.90
40996;DHT22;26723;57.478;12.066;2023-10-19T07:11:41;5.50;99.90
40996;DHT22;26723;57.478;12.066;2023-10-19T07:14:53;5.80;99.90
40996;DHT22;26723;57.478;12.066;2023-10-19T07:18:01;6.50;99.90
40996;DHT22;26723;57.478;12.066;2023-10-19T07:21:10;6.70;99.90
40996;DHT22;26723;57.478;12.066;2023-10-19T07:24:19;7.00;99.90
40996;DHT22;26723;57.478;12.066;2023-10-19T07:27:30;7.30;99.90
40996;DHT22;26723;57.478;12.066;2023-10-19T07:30:46;7.50;99.90
40996;DHT22;26723;57.478;12.066;2023-10-19T07:33:54;6.90;99.90
40996;DHT22;26723;57.478;12.066;2023-10-19T07:37:06;6.90;99.90
40996;DHT22;26723;57.478;12.066;2023-10-19T07:40:15;6.90;99.90
40996;DHT22;26723;57.478;12.066;2023-10-19T07:43:25;7.00;99.90
40996;DHT22;26723;57.478;12.066;2023-10-19T07:46:35;6.90;99.90
40996;DHT22;26723;57.478;12.066;2023-10-19T07:49:43;6.40;99.90
40996;DHT22;26723;57.478;12.066;2023-10-19T07:52:55;6.30;99.90
40996;DHT22;26723;57.478;12.066;2023-10-19T07:56:03;6.20;99.90
40996;DHT22;26723;57.478;12.066;2023-10-19T07:59:12;6.20;99.90
40996;DHT22;26723;57.478;12.066;2023-10-19T08:02:22;6.00;99.90
40996;DHT22;26723;57.478;12.066;2023-10-19T08:05:32;6.10;99.90
40996;DHT22;26723;57.478;12.066;2023-10-19T08:08:41;6.00;99.90
40996;DHT22;26723;57.478;12.066;2023-10-19T08:11:50;6.00;99.90
40996;DHT22;26723;57.478;12.066;2023-10-19T08:15:03;6.20;99.90
40996;DHT22;26723;57.478;12.066;2023-10-19T08:18:15;6.50;99.90
40996;DHT22;26723;57.478;12.066;2023-10-19T08:21:25;6.70;99.90
40996;DHT22;26723;57.478;12.066;2023-10-19T08:24:35;6.70;99.90
40996;DHT22;26723;57.478;12.066;2023-10-19T08:27:45;6.50;99.90
40996;DHT22;26723;57.478;12.066;2023-10-19T08:30:56;6.70;99.90
40996;DHT22;26723;57.478;12.066;2023-10-19T08:34:10;7.00;99.90
40996;DHT22;26723;57.478;12.066;2023-10-19T08:37:20;6.90;99.90
40996;DHT22;26723;57.478;12.066;2023-10-19T08:40:28;7.00;99.90
40996;DHT22;26723;57.478;12.066;2023-10-19T08:43:38;7.10;99.90
40996;DHT22;26723;57.478;12.066;2023-10-19T08:46:47;7.30;99.90
40996;DHT22;26723;57.478;12.066;2023-10-19T08:49:58;7.10;99.90
40996;DHT22;26723;57.478;12.066;2023-10-19T08:53:08;7.10;99.90
40996;DHT22;26723;57.478;12.066;2023-10-19T08:56:17;7.00;99.90
40996;DHT22;26723;57.478;12.066;2023-10-19T08:59:25;6.90;99.90
40996;DHT22;26723;57.478;12.066;2023-10-19T09:02:35;7.00;99.90
40996;DHT22;26723;57.478;12.066;2023-10-19T09:05:45;7.20;99.90
40996;DHT22;26723;57.478;12.066;2023-10-19T09:08:55;7.10;99.90
40996;DHT22;26723;57.478;12.066;2023-10-19T09:12:05;7.10;99.90
40996;DHT22;26723;57.478;12.066;2023-10-19T09:15:21;7.20;99.90
40996;DHT22;26723;57.478;12.066;2023-10-19T09:18:33;7.20;99.90
40996;DHT22;26723;57.478;12.066;2023-10-19T09:21:43;7.10;99.90
40996;DHT22;26723;57.478;12.066;2023-10-19T09:24:53;7.10;99.90
40996;DHT22;26723;57.478;12.066;2023-10-19T09:28:03;7.10;99.90
40996;DHT22;26723;57.478;12.066;2023-10-19T09:31:12;7.20;99.90
40996;DHT22;26723;57.478;12.066;2023-10-19T09:34:21;7.30;99.90
40996;DHT22;26723;57.478;12.066;2023-10-19T09:37:31;7.40;99.90
40996;DHT22;26723;57.478;12.066;2023-10-19T09:40:40;7.20;99.90
40996;DHT22;26723;57.478;12.066;2023-10-19T09:43:50;7.00;99.90
40996;DHT22;26723;57.478;12.066;2023-10-19T09:47:04;6.90;99.90
40996;DHT22;26723;57.478;12.066;2023-10-19T09:50:16;6.80;99.90
40996;DHT22;26723;57.478;12.066;2023-10-19T09:53:28;6.80;99.90
40996;DHT22;26723;57.478;12.066;2023-10-19T09:56:41;7.20;99.90
40996;DHT22;26723;57.478;12.066;2023-10-19T09:59:58;7.20;99.90
40996;DHT22;26723;57.478;12.066;2023-10-19T10:03:42;7.10;99.90
40996;DHT22;26723;57.478;12.066;2023-10-19T10:06:59;7.10;99.90
40996;DHT22;26723;57.478;12.066;2023-10-19T10:10:10;7.00;99.90
40996;DHT22;26723;57.478;12.066;2023-10-19T10:13:36;7.20;99.90
40996;DHT22;26723;57.478;12.066;2023-10-19T10:16:45;7.10;99.90
40996;DHT22;26723;57.478;12.066;2023-10-19T10:19:55;7.00;99.90
40996;DHT22;26723;57.478;12.066;2023-10-19T10:23:20;7.10;99.90
40996;DHT22;26723;57.478;12.066;2023-10-19T10:26:58;7.20;99.90
40996;DHT22;26723;57.478;12.066;2023-10-19T10:30:08;7.20;99.90
40996;DHT22;26723;57.478;12.066;2023-10-19T10:33:38;7.30;99.90
40996;DHT22;26723;57.478;12.066;2023-10-19T10:37:00;7.30;99.90
40996;DHT22;26723;57.478;12.066;2023-10-19T10:40:10;7.40;99.90
40996;DHT22;26723;57.478;12.066;2023-10-19T10:43:23;7.20;99.90
40996;DHT22;26723;57.478;12.066;2023-10-19T10:46:32;7.20;99.90
40996;DHT22;26723;57.478;12.066;2023-10-19T10:49:51;7.10;99.90
40996;DHT22;26723;57.478;12.066;2023-10-19T10:53:01;6.90;99.90
40996;DHT22;26723;57.478;12.066;2023-10-19T10:56:10;7.00;99.90
40996;DHT22;26723;57.478;12.066;2023-10-19T10:59:20;6.90;99.90
40996;DHT22;26723;57.478;12.066;2023-10-19T11:02:29;7.00;99.90
40996;DHT22;26723;57.478;12.066;2023-10-19T11:05:37;7.00;99.90
40996;DHT22;26723;57.478;12.066;2023-10-19T11:08:46;7.00;99.90
40996;DHT22;26723;57.478;12.066;2023-10-19T11:11:55;7.30;99.90
40996;DHT22;26723;57.478;12.066;2023-10-19T11:15:06;7.30;99.90
40996;DHT22;26723;57.478;12.066;2023-10-19T11:18:31;7.20;99.90
40996;DHT22;26723;57.478;12.066;2023-10-19T11:21:52;7.20;99.90
40996;DHT22;26723;57.478;12.066;2023-10-19T11:25:18;7.20;99.90
40996;DHT22;26723;57.478;12.066;2023-10-19T11:28:27;7.20;99.90
40996;DHT22;26723;57.478;12.066;2023-10-19T11:31:37;7.00;99.90
40996;DHT22;26723;57.478;12.066;2023-10-19T11:34:46;7.10;99.90
40996;DHT22;26723;57.478;12.066;2023-10-19T11:37:56;7.10;99.90
40996;DHT22;26723;57.478;12.066;2023-10-19T11:41:06;7.00;99.90
40996;DHT22;26723;57.478;12.066;2023-10-19T11:44:15;7.00;99.90
40996;DHT22;26723;57.478;12.066;2023-10-19T11:47:24;6.90;99.90
40996;DHT22;26723;57.478;12.066;2023-10-19T11:50:33;6.90;99.90
40996;DHT22;26723;57.478;12.066;2023-10-19T11:53:42;6.90;99.90
40996;DHT22;26723;57.478;12.066;2023-10-19T11:56:51;6.90;99.90
40996;DHT22;26723;57.478;12.066;2023-10-19T12:00:00;6.90;99.90
40996;DHT22;26723;57.478;12.066;2023-10-19T12:03:16;6.90;99.90
40996;DHT22;26723;57.478;12.066;2023-10-19T12:06:26;6.90;99.90
40996;DHT22;26723;57.478;12.066;2023-10-19T12:09:35;6.80;99.90
40996;DHT22;26723;57.478;12.066;2023-10-19T12:12:44;7.00;99.90
40996;DHT22;26723;57.478;12.066;2023-10-19T12:16:08;7.10;99.90
40996;DHT22;26723;57.478;12.066;2023-10-19T12:19:21;6.90;99.90
40996;DHT22;26723;57.478;12.066;2023-10-19T12:22:29;7.00;99.90
40996;DHT22;26723;57.478;12.066;2023-10-19T12:25:46;7.10;99.90
40996;DHT22;26723;57.478;12.066;2023-10-19T12:29:04;7.00;99.90
40996;DHT22;26723;57.478;12.066;2023-10-19T12:32:16;7.00;99.90
40996;DHT22;26723;57.478;12.066;2023-10-19T12:35:27;6.90;99.90
40996;DHT22;26723;57.478;12.066;2023-10-19T12:38:51;6.90;99.90
40996;DHT22;26723;57.478;12.066;2023-10-19T12:42:01;6.80;99.90
40996;DHT22;26723;57.478;12.066;2023-10-19T12:45:11;6.90;99.90
40996;DHT22;26723;57.478;12.066;2023-10-19T12:48:19;6.90;99.90
40996;DHT22;26723;57.478;12.066;2023-10-19T12:51:30;6.80;99.90
40996;DHT22;26723;57.478;12.066;2023-10-19T12:54:38;6.60;99.90
40996;DHT22;26723;57.478;12.066;2023-10-19T12:57:50;6.50;99.90
40996;DHT22;26723;57.478;12.066;2023-10-19T13:00:59;6.60;99.90
40996;DHT22;26723;57.478;12.066;2023-10-19T13:04:07;6.60;99.90
40996;DHT22;26723;57.478;12.066;2023-10-19T13:07:25;6.50;99.90
40996;DHT22;26723;57.478;12.066;2023-10-19T13:10:34;6.40;99.90
40996;DHT22;26723;57.478;12.066;2023-10-19T13:13:44;6.60;99.90
40996;DHT22;26723;57.478;12.066;2023-10-19T13:16:54;6.60;99.90
40996;DHT22;26723;57.478;12.066;2023-10-19T13:20:03;6.60;99.90
40996;DHT22;26723;57.478;12.066;2023-10-19T13:23:24;6.50;99.90
40996;DHT22;26723;57.478;12.066;2023-10-19T13:26:33;6.40;99.90
40996;DHT22;26723;57.478;12.066;2023-10-19T13:29:41;6.50;99.90
40996;DHT22;26723;57.478;12.066;2023-10-19T13:32:50;6.40;99.90
40996;DHT22;26723;57.478;12.066;2023-10-19T13:36:00;6.60;99.90
40996;DHT22;26723;57.478;12.066;2023-10-19T13:39:10;6.50;99.90
40996;DHT22;26723;57.478;12.066;2023-10-19T13:42:24;6.50;99.90
40996;DHT22;26723;57.478;12.066;2023-10-19T13:45:33;6.40;99.90
40996;DHT22;26723;57.478;12.066;2023-10-19T13:48:42;6.10;99.90
40996;DHT22;26723;57.478;12.066;2023-10-19T13:51:51;6.10;99.90
40996;DHT22;26723;57.478;12.066;2023-10-19T13:55:01;6.10;99.90
40996;DHT22;26723;57.478;12.066;2023-10-19T13:58:10;6.10;99.90
40996;DHT22;26723;57.478;12.066;2023-10-19T14:01:19;5.90;99.90
40996;DHT22;26723;57.478;12.066;2023-10-19T14:04:31;5.90;99.90
40996;DHT22;26723;57.478;12.066;2023-10-19T14:07:40;5.90;99.90
40996;DHT22;26723;57.478;12.066;2023-10-19T14:10:50;5.70;99.90
40996;DHT22;26723;57.478;12.066;2023-10-19T14:13:58;5.70;99.90
40996;DHT22;26723;57.478;12.066;2023-10-19T14:17:07;5.80;99.90
40996;DHT22;26723;57.478;12.066;2023-10-19T14:20:17;5.70;99.90
40996;DHT22;26723;57.478;12.066;2023-10-19T14:23:26;5.80;99.90
40996;DHT22;26723;57.478;12.066;2023-10-19T14:26:35;5.70;99.90
40996;DHT22;26723;57.478;12.066;2023-10-19T14:29:47;5.70;99.90
40996;DHT22;26723;57.478;12.066;2023-10-19T14:32:55;5.70;99.90
40996;DHT22;26723;57.478;12.066;2023-10-19T14:36:04;5.70;99.90
40996;DHT22;26723;57.478;12.066;2023-10-19T14:39:13;5.70;99.90
40996;DHT22;26723;57.478;12.066;2023-10-19T14:42:27;5.60;99.90
40996;DHT22;26723;57.478;12.066;2023-10-19T14:45:41;5.50;99.90
40996;DHT22;26723;57.478;12.066;2023-10-19T14:48:50;5.50;99.90
40996;DHT22;26723;57.478;12.066;2023-10-19T14:51:59;5.50;99.90
40996;DHT22;26723;57.478;12.066;2023-10-19T14:55:11;5.40;99.90
40996;DHT22;26723;57.478;12.066;2023-10-19T14:58:22;5.50;99.90
40996;DHT22;26723;57.478;12.066;2023-10-19T15:01:32;5.50;99.90
40996;DHT22;26723;57.478;12.066;2023-10-19T15:04:40;5.50;99.90
40996;DHT22;26723;57.478;12.066;2023-10-19T15:07:51;5.60;99.90
40996;DHT22;26723;57.478;12.066;2023-10-19T15:11:00;5.60;99.90
40996;DHT22;26723;57.478;12.066;2023-10-19T15:14:09;5.60;99.90
40996;DHT22;26723;57.478;12.066;2023-10-19T15:17:19;5.40;99.90
40996;DHT22;26723;57.478;12.066;2023-10-19T15:20:28;5.40;99.90
40996;DHT22;26723;57.478;12.066;2023-10-19T15:23:37;5.40;99.90
40996;DHT22;26723;57.478;12.066;2023-10-19T15:26:46;5.20;99.90
40996;DHT22;26723;57.478;12.066;2023-10-19T15:29:56;5.20;99.90
40996;DHT22;26723;57.478;12.066;2023-10-19T15:33:05;5.10;99.90
40996;DHT22;26723;57.478;12.066;2023-10-19T15:36:14;5.10;99.90
40996;DHT22;26723;57.478;12.066;2023-10-19T15:39:23;5.00;99.90
40996;DHT22;26723;57.478;12.066;2023-10-19T15:42:31;5.00;99.90
40996;DHT22;26723;57.478;12.066;2023-10-19T15:45:44;5.00;99.90
40996;DHT22;26723;57.478;12.066;2023-10-19T15:48:55;5.00;99.90
40996;DHT22;26723;57.478;12.066;2023-10-19T15:52:04;4.90;99.90
40996;DHT22;26723;57.478;12.066;2023-10-19T15:55:13;4.80;99.90
40996;DHT22;26723;57.478;12.066;2023-10-19T15:58:22;4.70;99.90
40996;DHT22;26723;57.478;12.066;2023-10-19T16:01:33;4.80;99.90
40996;DHT22;26723;57.478;12.066;2023-10-19T16:04:43;4.70;99.90
40996;DHT22;26723;57.478;12.066;2023-10-19T16:07:52;4.70;99.90
40996;DHT22;26723;57.478;12.066;2023-10-19T16:11:03;4.60;99.90
40996;DHT22;26723;57.478;12.066;2023-10-19T16:14:11;4.60;99.90
40996;DHT22;26723;57.478;12.066;2023-10-19T16:17:22;4.50;99.90
40996;DHT22;26723;57.478;12.066;2023-10-19T16:20:31;4.50;99.90
40996;DHT22;26723;57.478;12.066;2023-10-19T16:23:40;4.50;99.90
40996;DHT22;26723;57.478;12.066;2023-10-19T16:26:48;4.40;99.90
40996;DHT22;26723;57.478;12.066;2023-10-19T16:29:57;4.40;99.90
40996;DHT22;26723;57.478;12.066;2023-10-19T16:33:07;4.40;99.90
40996;DHT22;26723;57.478;12.066;2023-10-19T16:36:16;4.40;99.90
40996;DHT22;26723;57.478;12.066;2023-10-19T16:39:24;4.30;99.90
40996;DHT22;26723;57.478;12.066;2023-10-19T16:42:33;4.30;99.90
40996;DHT22;26723;57.478;12.066;2023-10-19T16:45:42;4.30;99.90
40996;DHT22;26723;57.478;12.066;2023-10-19T16:48:52;4.30;99.90
40996;DHT22;26723;57.478;12.066;2023-10-19T16:52:00;4.20;99.90
40996;DHT22;26723;57.478;12.066;2023-10-19T16:55:09;4.10;99.90
40996;DHT22;26723;57.478;12.066;2023-10-19T16:58:18;4.10;99.90
40996;DHT22;26723;57.478;12.066;2023-10-19T17:01:27;4.10;99.90
40996;DHT22;26723;57.478;12.066;2023-10-19T17:04:38;4.10;99.90
40996;DHT22;26723;57.478;12.066;2023-10-19T17:07:48;4.10;99.90
40996;DHT22;26723;57.478;12.066;2023-10-19T17:10:56;4.00;99.90
40996;DHT22;26723;57.478;12.066;2023-10-19T17:14:10;4.00;99.90
40996;DHT22;26723;57.478;12.066;2023-10-19T17:17:18;4.00;99.90
40996;DHT22;26723;57.478;12.066;2023-10-19T17:20:29;3.90;99.90
40996;DHT22;26723;57.478;12.066;2023-10-19T17:23:38;3.90;99.90
40996;DHT22;26723;57.478;12.066;2023-10-19T17:26:47;3.90;99.90
40996;DHT22;26723;57.478;12.066;2023-10-19T17:29:55;3.90;99.90
40996;DHT22;26723;57.478;12.066;2023-10-19T17:33:04;3.90;99.90
40996;DHT22;26723;57.478;12.066;2023-10-19T17:36:20;3.90;99.90
40996;DHT22;26723;57.478;12.066;2023-10-19T17:39:28;3.80;99.90
40996;DHT22;26723;57.478;12.066;2023-10-19T17:42:40;3.80;99.90
40996;DHT22;26723;57.478;12.066;2023-10-19T17:45:49;3.70;99.90
40996;DHT22;26723;57.478;12.066;2023-10-19T17:48:57;3.60;99.90
40996;DHT22;26723;57.478;12.066;2023-10-19T17:52:07;3.60;99.90
40996;DHT22;26723;57.478;12.066;2023-10-19T17:55:16;3.50;99.90
40996;DHT22;26723;57.478;12.066;2023-10-19T17:58:27;3.60;99.90
40996;DHT22;26723;57.478;12.066;2023-10-19T18:01:36;3.50;99.90
40996;DHT22;26723;57.478;12.066;2023-10-19T18:04:46;3.50;99.90
40996;DHT22;26723;57.478;12.066;2023-10-19T18:07:58;3.90;99.90
40996;DHT22;26723;57.478;12.066;2023-10-19T18:11:10;3.60;99.90
40996;DHT22;26723;57.478;12.066;2023-10-19T18:14:20;3.60;99.90
40996;DHT22;26723;57.478;12.066;2023-10-19T18:17:29;3.50;99.90
40996;DHT22;26723;57.478;12.066;2023-10-19T18:20:38;3.50;99.90
40996;DHT22;26723;57.478;12.066;2023-10-19T18:23:48;3.40;99.90
40996;DHT22;26723;57.478;12.066;2023-10-19T18:26:56;3.40;99.90
40996;DHT22;26723;57.478;12.066;2023-10-19T18:30:06;3.40;99.90
40996;DHT22;26723;57.478;12.066;2023-10-19T18:33:17;3.40;99.90
40996;DHT22;26723;57.478;12.066;2023-10-19T18:36:26;3.30;99.90
40996;DHT22;26723;57.478;12.066;2023-10-19T18:39:38;3.30;99.90
40996;DHT22;26723;57.478;12.066;2023-10-19T18:42:46;3.30;99.90
40996;DHT22;26723;57.478;12.066;2023-10-19T18:45:55;3.30;99.90
40996;DHT22;26723;57.478;12.066;2023-10-19T18:49:04;3.20;99.90
40996;DHT22;26723;57.478;12.066;2023-10-19T18:52:17;3.20;99.90
40996;DHT22;26723;57.478;12.066;2023-10-19T18:55:28;3.20;99.90
40996;DHT22;26723;57.478;12.066;2023-10-19T18:58:38;3.20;99.90
40996;DHT22;26723;57.478;12.066;2023-10-19T19:01:47;3.10;99.90
40996;DHT22;26723;57.478;12.066;2023-10-19T19:04:55;3.00;99.90
40996;DHT22;26723;57.478;12.066;2023-10-19T19:08:04;3.00;99.90
40996;DHT22;26723;57.478;12.066;2023-10-19T19:11:15;3.00;99.90
40996;DHT22;26723;57.478;12.066;2023-10-19T19:14:24;2.90;99.90
40996;DHT22;26723;57.478;12.066;2023-10-19T19:17:33;2.90;99.90
40996;DHT22;26723;57.478;12.066;2023-10-19T19:20:42;2.90;99.90
40996;DHT22;26723;57.478;12.066;2023-10-19T19:23:51;2.80;99.90
40996;DHT22;26723;57.478;12.066;2023-10-19T19:27:01;2.80;99.90
40996;DHT22;26723;57.478;12.066;2023-10-19T19:30:10;2.70;99.90
40996;DHT22;26723;57.478;12.066;2023-10-19T19:33:19;2.70;99.90
40996;DHT22;26723;57.478;12.066;2023-10-19T19:36:28;2.70;99.90
40996;DHT22;26723;57.478;12.066;2023-10-19T19:39:37;2.70;99.90
40996;DHT22;26723;57.478;12.066;2023-10-19T19:42:46;2.70;99.90
40996;DHT22;26723;57.478;12.066;2023-10-19T19:45:55;2.60;99.90
40996;DHT22;26723;57.478;12.066;2023-10-19T19:49:04;2.60;99.90
40996;DHT22;26723;57.478;12.066;2023-10-19T19:52:12;2.60;99.90
40996;DHT22;26723;57.478;12.066;2023-10-19T19:55:21;2.60;99.90
40996;DHT22;26723;57.478;12.066;2023-10-19T19:58:31;2.50;99.90
40996;DHT22;26723;57.478;12.066;2023-10-19T20:01:39;2.50;99.90
40996;DHT22;26723;57.478;12.066;2023-10-19T20:04:50;2.40;99.90